sensor_id;sensor_type;location;lat;lon;timestamp;temperature;humidity
11009;DHT22;5557;51.670;7.788;2023-04-01T00:01:27;9.60;99.90
11009;DHT22;5557;51.670;7.788;2023-04-01T00:03:54;9.60;99.90
11009;DHT22;5557;51.670;7.788;2023-04-01T00:06:22;9.60;99.90
11009;DHT22;5557;51.670;7.788;2023-04-01T00:08:49;9.60;99.90
11009;DHT22;5557;51.670;7.788;2023-04-01T00:11:16;9.60;99.90
11009;DHT22;5557;51.670;7.788;2023-04-01T00:13:46;9.60;99.90
11009;DHT22;5557;51.670;7.788;2023-04-01T00:16:14;9.60;99.90
11009;DHT22;5557;51.670;7.788;2023-04-01T00:18:47;9.60;99.90
11009;DHT22;5557;51.670;7.788;2023-04-01T00:21:15;9.60;99.90
11009;DHT22;5557;51.670;7.788;2023-04-01T00:23:42;9.60;99.90
11009;DHT22;5557;51.670;7.788;2023-04-01T00:26:10;9.60;99.90
11009;DHT22;5557;51.670;7.788;2023-04-01T00:28:39;9.50;99.90
11009;DHT22;5557;51.670;7.788;2023-04-01T00:31:07;9.50;99.90
11009;DHT22;5557;51.670;7.788;2023-04-01T00:33:35;9.50;99.90
11009;DHT22;5557;51.670;7.788;2023-04-01T00:36:14;9.50;99.90
11009;DHT22;5557;51.670;7.788;2023-04-01T00:38:41;9.40;99.90
11009;DHT22;5557;51.670;7.788;2023-04-01T00:41:10;9.40;99.90
11009;DHT22;5557;51.670;7.788;2023-04-01T00:43:46;9.40;99.90
11009;DHT22;5557;51.670;7.788;2023-04-01T00:46:13;9.40;99.90
11009;DHT22;5557;51.670;7.788;2023-04-01T00:48:54;9.40;99.90
11009;DHT22;5557;51.670;7.788;2023-04-01T00:51:24;9.30;99.90
11009;DHT22;5557;51.670;7.788;2023-04-01T00:53:54;9.30;99.90
11009;DHT22;5557;51.670;7.788;2023-04-01T00:56:25;9.30;99.90
11009;DHT22;5557;51.670;7.788;2023-04-01T00:59:27;9.30;99.90
11009;DHT22;5557;51.670;7.788;2023-04-01T01:01:56;9.20;99.90
11009;DHT22;5557;51.670;7.788;2023-04-01T01:04:30;9.20;99.90
11009;DHT22;5557;51.670;7.788;2023-04-01T01:07:10;9.20;99.90
11009;DHT22;5557;51.670;7.788;2023-04-01T01:12:31;9.20;99.90
11009;DHT22;5557;51.670;7.788;2023-04-01T01:15:21;9.10;99.90
11009;DHT22;5557;51.670;7.788;2023-04-01T01:18:10;9.10;99.90
11009;DHT22;5557;51.670;7.788;2023-04-01T01:20:57;9.10;99.90
11009;DHT22;5557;51.670;7.788;2023-04-01T01:27:11;9.10;99.90
11009;DHT22;5557;51.670;7.788;2023-04-01T01:33:19;9.10;99.90
11009;DHT22;5557;51.670;7.788;2023-04-01T01:35:53;9.00;99.90
11009;DHT22;5557;51.670;7.788;2023-04-01T01:38:24;9.00;99.90
11009;DHT22;5557;51.670;7.788;2023-04-01T01:40:55;9.00;99.90
11009;DHT22;5557;51.670;7.788;2023-04-01T01:43:26;9.00;99.90
11009;DHT22;5557;51.670;7.788;2023-04-01T01:45:58;9.00;99.90
11009;DHT22;5557;51.670;7.788;2023-04-01T01:48:27;9.00;99.90
11009;DHT22;5557;51.670;7.788;2023-04-01T01:50:56;9.00;99.90
11009;DHT22;5557;51.670;7.788;2023-04-01T01:53:23;9.00;99.90
11009;DHT22;5557;51.670;7.788;2023-04-01T01:55:50;9.00;99.90
11009;DHT22;5557;51.670;7.788;2023-04-01T01:58:32;9.00;99.90
11009;DHT22;5557;51.670;7.788;2023-04-01T02:01:02;9.00;99.90
11009;DHT22;5557;51.670;7.788;2023-04-01T02:03:34;9.00;99.90
11009;DHT22;5557;51.670;7.788;2023-04-01T02:06:06;9.00;99.90
11009;DHT22;5557;51.670;7.788;2023-04-01T02:08:47;9.00;99.90
11009;DHT22;5557;51.670;7.788;2023-04-01T02:11:18;9.00;99.90
11009;DHT22;5557;51.670;7.788;2023-04-01T02:14:10;9.00;99.90
11009;DHT22;5557;51.670;7.788;2023-04-01T02:17:14;9.00;99.90
11009;DHT22;5557;51.670;7.788;2023-04-01T02:20:07;9.00;99.90
11009;DHT22;5557;51.670;7.788;2023-04-01T02:22:39;9.00;99.90
11009;DHT22;5557;51.670;7.788;2023-04-01T02:25:11;9.00;99.90
11009;DHT22;5557;51.670;7.788;2023-04-01T02:27:40;9.00;99.90
11009;DHT22;5557;51.670;7.788;2023-04-01T02:30:10;9.00;99.90
11009;DHT22;5557;51.670;7.788;2023-04-01T02:32:40;9.00;99.90
11009;DHT22;5557;51.670;7.788;2023-04-01T02:35:10;9.00;99.90
11009;DHT22;5557;51.670;7.788;2023-04-01T02:37:39;8.90;99.90
11009;DHT22;5557;51.670;7.788;2023-04-01T02:40:11;9.00;99.90
11009;DHT22;5557;51.670;7.788;2023-04-01T02:42:39;8.90;99.90
11009;DHT22;5557;51.670;7.788;2023-04-01T02:45:07;8.90;99.90
11009;DHT22;5557;51.670;7.788;2023-04-01T02:47:34;8.90;99.90
11009;DHT22;5557;51.670;7.788;2023-04-01T02:50:01;8.90;99.90
11009;DHT22;5557;51.670;7.788;2023-04-01T02:52:29;8.90;99.90
11009;DHT22;5557;51.670;7.788;2023-04-01T02:54:57;8.90;99.90
11009;DHT22;5557;51.670;7.788;2023-04-01T02:57:25;8.90;99.90
11009;DHT22;5557;51.670;7.788;2023-04-01T02:59:52;8.90;99.90
11009;DHT22;5557;51.670;7.788;2023-04-01T03:02:19;8.90;99.90
11009;DHT22;5557;51.670;7.788;2023-04-01T03:04:46;8.90;99.90
11009;DHT22;5557;51.670;7.788;2023-04-01T03:07:13;8.90;99.90
11009;DHT22;5557;51.670;7.788;2023-04-01T03:09:40;8.90;99.90
11009;DHT22;5557;51.670;7.788;2023-04-01T03:12:07;8.90;99.90
11009;DHT22;5557;51.670;7.788;2023-04-01T03:14:34;8.90;99.90
11009;DHT22;5557;51.670;7.788;2023-04-01T03:17:01;8.90;99.90
11009;DHT22;5557;51.670;7.788;2023-04-01T03:19:28;8.90;99.90
11009;DHT22;5557;51.670;7.788;2023-04-01T03:21:55;8.90;99.90
11009;DHT22;5557;51.670;7.788;2023-04-01T03:24:22;8.90;99.90
11009;DHT22;5557;51.670;7.788;2023-04-01T03:26:49;8.90;99.90
11009;DHT22;5557;51.670;7.788;2023-04-01T03:29:16;8.90;99.90
11009;DHT22;5557;51.670;7.788;2023-04-01T03:31:43;8.90;99.90
11009;DHT22;5557;51.670;7.788;2023-04-01T03:34:10;8.90;99.90
11009;DHT22;5557;51.670;7.788;2023-04-01T03:36:37;8.90;99.90
11009;DHT22;5557;51.670;7.788;2023-04-01T03:39:05;8.90;99.90
11009;DHT22;5557;51.670;7.788;2023-04-01T03:41:32;8.90;99.90
11009;DHT22;5557;51.670;7.788;2023-04-01T03:43:59;8.90;99.90
11009;DHT22;5557;51.670;7.788;2023-04-01T03:46:26;8.90;99.90
11009;DHT22;5557;51.670;7.788;2023-04-01T03:48:53;8.90;99.90
11009;DHT22;5557;51.670;7.788;2023-04-01T03:51:20;8.90;99.90
11009;DHT22;5557;51.670;7.788;2023-04-01T03:53:48;8.90;99.90
11009;DHT22;5557;51.670;7.788;2023-04-01T03:56:16;8.90;99.90
11009;DHT22;5557;51.670;7.788;2023-04-01T03:58:43;8.90;99.90
11009;DHT22;5557;51.670;7.788;2023-04-01T04:01:17;8.90;99.90
11009;DHT22;5557;51.670;7.788;2023-04-01T04:03:48;8.80;99.90
11009;DHT22;5557;51.670;7.788;2023-04-01T04:06:18;8.80;99.90
11009;DHT22;5557;51.670;7.788;2023-04-01T04:08:45;8.80;99.90
11009;DHT22;5557;51.670;7.788;2023-04-01T04:11:13;8.80;99.90
11009;DHT22;5557;51.670;7.788;2023-04-01T04:13:41;8.80;99.90
11009;DHT22;5557;51.670;7.788;2023-04-01T04:16:09;8.80;99.90
11009;DHT22;5557;51.670;7.788;2023-04-01T04:18:37;8.80;99.90
11009;DHT22;5557;51.670;7.788;2023-04-01T04:21:05;8.80;99.90
11009;DHT22;5557;51.670;7.788;2023-04-01T04:23:32;8.80;99.90
11009;DHT22;5557;51.670;7.788;2023-04-01T04:26:10;8.80;99.90
11009;DHT22;5557;51.670;7.788;2023-04-01T04:28:40;8.80;99.90
11009;DHT22;5557;51.670;7.788;2023-04-01T04:31:07;8.70;99.90
11009;DHT22;5557;51.670;7.788;2023-04-01T04:33:35;8.70;99.90
11009;DHT22;5557;51.670;7.788;2023-04-01T04:36:04;8.70;99.90
11009;DHT22;5557;51.670;7.788;2023-04-01T04:38:31;8.70;99.90
11009;DHT22;5557;51.670;7.788;2023-04-01T04:40:58;8.70;99.90
11009;DHT22;5557;51.670;7.788;2023-04-01T04:43:25;8.60;99.90
11009;DHT22;5557;51.670;7.788;2023-04-01T04:45:52;8.60;99.90
11009;DHT22;5557;51.670;7.788;2023-04-01T04:48:19;8.60;99.90
11009;DHT22;5557;51.670;7.788;2023-04-01T04:50:48;8.60;99.90
11009;DHT22;5557;51.670;7.788;2023-04-01T04:53:17;8.60;99.90
11009;DHT22;5557;51.670;7.788;2023-04-01T04:55:45;8.60;99.90
11009;DHT22;5557;51.670;7.788;2023-04-01T04:58:12;8.60;99.90
11009;DHT22;5557;51.670;7.788;2023-04-01T05:00:39;8.60;99.90
11009;DHT22;5557;51.670;7.788;2023-04-01T05:03:06;8.60;99.90
11009;DHT22;5557;51.670;7.788;2023-04-01T05:05:34;8.60;99.90
11009;DHT22;5557;51.670;7.788;2023-04-01T05:08:01;8.60;99.90
11009;DHT22;5557;51.670;7.788;2023-04-01T05:10:28;8.60;99.90
11009;DHT22;5557;51.670;7.788;2023-04-01T05:12:56;8.60;99.90
11009;DHT22;5557;51.670;7.788;2023-04-01T05:15:23;8.60;99.90
11009;DHT22;5557;51.670;7.788;2023-04-01T05:17:50;8.60;99.90
11009;DHT22;5557;51.670;7.788;2023-04-01T05:20:17;8.60;99.90
11009;DHT22;5557;51.670;7.788;2023-04-01T05:22:44;8.60;99.90
11009;DHT22;5557;51.670;7.788;2023-04-01T05:25:11;8.60;99.90
11009;DHT22;5557;51.670;7.788;2023-04-01T05:27:38;8.60;99.90
11009;DHT22;5557;51.670;7.788;2023-04-01T05:30:06;8.60;99.90
11009;DHT22;5557;51.670;7.788;2023-04-01T05:32:34;8.60;99.90
11009;DHT22;5557;51.670;7.788;2023-04-01T05:35:01;8.70;99.90
11009;DHT22;5557;51.670;7.788;2023-04-01T05:37:28;8.70;99.90
11009;DHT22;5557;51.670;7.788;2023-04-01T05:39:55;8.70;99.90
11009;DHT22;5557;51.670;7.788;2023-04-01T05:42:22;8.70;99.90
11009;DHT22;5557;51.670;7.788;2023-04-01T05:44:49;8.70;99.90
11009;DHT22;5557;51.670;7.788;2023-04-01T05:47:16;8.70;99.90
11009;DHT22;5557;51.670;7.788;2023-04-01T05:49:43;8.80;99.90
11009;DHT22;5557;51.670;7.788;2023-04-01T05:52:10;8.80;99.90
11009;DHT22;5557;51.670;7.788;2023-04-01T05:54:37;8.80;99.90
11009;DHT22;5557;51.670;7.788;2023-04-01T05:57:04;8.80;99.90
11009;DHT22;5557;51.670;7.788;2023-04-01T05:59:31;8.80;99.90
11009;DHT22;5557;51.670;7.788;2023-04-01T06:01:58;8.90;99.90
11009;DHT22;5557;51.670;7.788;2023-04-01T06:04:31;8.90;99.90
11009;DHT22;5557;51.670;7.788;2023-04-01T06:06:59;8.90;99.90
11009;DHT22;5557;51.670;7.788;2023-04-01T06:09:28;8.90;99.90
11009;DHT22;5557;51.670;7.788;2023-04-01T06:15:18;9.00;99.90
11009;DHT22;5557;51.670;7.788;2023-04-01T06:24:38;9.00;99.90
11009;DHT22;5557;51.670;7.788;2023-04-01T06:30:43;9.10;99.90
11009;DHT22;5557;51.670;7.788;2023-04-01T06:43:39;9.20;99.90
11009;DHT22;5557;51.670;7.788;2023-04-01T06:46:28;9.30;99.90
11009;DHT22;5557;51.670;7.788;2023-04-01T06:50:40;9.30;99.90
11009;DHT22;5557;51.670;7.788;2023-04-01T06:52:22;9.40;99.90
11009;DHT22;5557;51.670;7.788;2023-04-01T06:55:12;9.50;99.90
11009;DHT22;5557;51.670;7.788;2023-04-01T06:57:53;9.60;99.90
11009;DHT22;5557;51.670;7.788;2023-04-01T07:00:49;9.60;99.90
11009;DHT22;5557;51.670;7.788;2023-04-01T07:06:08;9.70;99.90
11009;DHT22;5557;51.670;7.788;2023-04-01T07:08:38;9.80;99.90
11009;DHT22;5557;51.670;7.788;2023-04-01T07:11:10;9.90;99.90
11009;DHT22;5557;51.670;7.788;2023-04-01T07:13:44;9.90;99.90
11009;DHT22;5557;51.670;7.788;2023-04-01T07:16:20;10.00;99.90
11009;DHT22;5557;51.670;7.788;2023-04-01T07:21:54;10.10;99.90
11009;DHT22;5557;51.670;7.788;2023-04-01T07:24:29;10.10;99.90
11009;DHT22;5557;51.670;7.788;2023-04-01T07:26:59;10.10;99.90
11009;DHT22;5557;51.670;7.788;2023-04-01T07:29:26;10.20;99.90
11009;DHT22;5557;51.670;7.788;2023-04-01T07:35:04;10.20;99.90
11009;DHT22;5557;51.670;7.788;2023-04-01T07:44:00;10.40;99.90
11009;DHT22;5557;51.670;7.788;2023-04-01T07:46:46;10.50;99.90
11009;DHT22;5557;51.670;7.788;2023-04-01T07:49:25;10.50;99.90
11009;DHT22;5557;51.670;7.788;2023-04-01T07:57:49;10.40;99.90
11009;DHT22;5557;51.670;7.788;2023-04-01T08:00:42;10.40;99.90
11009;DHT22;5557;51.670;7.788;2023-04-01T08:06:32;10.40;99.90
11009;DHT22;5557;51.670;7.788;2023-04-01T08:16:12;10.50;99.90
11009;DHT22;5557;51.670;7.788;2023-04-01T08:21:52;10.60;99.90
11009;DHT22;5557;51.670;7.788;2023-04-01T08:26:55;10.60;99.90
11009;DHT22;5557;51.670;7.788;2023-04-01T08:29:31;10.50;99.90
11009;DHT22;5557;51.670;7.788;2023-04-01T08:32:10;10.50;99.90
11009;DHT22;5557;51.670;7.788;2023-04-01T08:34:39;10.40;99.90
11009;DHT22;5557;51.670;7.788;2023-04-01T08:37:19;10.40;99.90
11009;DHT22;5557;51.670;7.788;2023-04-01T08:39:57;10.30;99.90
11009;DHT22;5557;51.670;7.788;2023-04-01T08:46:18;10.30;99.90
11009;DHT22;5557;51.670;7.788;2023-04-01T08:49:24;10.20;99.90
11009;DHT22;5557;51.670;7.788;2023-04-01T08:55:25;10.30;99.90
11009;DHT22;5557;51.670;7.788;2023-04-01T08:58:22;10.30;99.90
11009;DHT22;5557;51.670;7.788;2023-04-01T09:14:07;10.40;99.90
11009;DHT22;5557;51.670;7.788;2023-04-01T09:26:22;10.60;99.90
11009;DHT22;5557;51.670;7.788;2023-04-01T09:32:51;10.80;99.90
11009;DHT22;5557;51.670;7.788;2023-04-01T09:39:18;10.90;99.90
11009;DHT22;5557;51.670;7.788;2023-04-01T09:44:58;11.00;99.90
11009;DHT22;5557;51.670;7.788;2023-04-01T09:48:27;11.00;99.90
11009;DHT22;5557;51.670;7.788;2023-04-01T10:22:11;10.40;99.90
11009;DHT22;5557;51.670;7.788;2023-04-01T10:25:11;10.30;99.90
11009;DHT22;5557;51.670;7.788;2023-04-01T10:36:56;10.30;99.90
11009;DHT22;5557;51.670;7.788;2023-04-01T10:42:39;10.30;99.90
11009;DHT22;5557;51.670;7.788;2023-04-01T10:45:35;10.40;99.90
11009;DHT22;5557;51.670;7.788;2023-04-01T10:52:21;10.70;99.90
11009;DHT22;5557;51.670;7.788;2023-04-01T10:54:49;10.70;99.90
11009;DHT22;5557;51.670;7.788;2023-04-01T11:03:44;10.70;99.90
11009;DHT22;5557;51.670;7.788;2023-04-01T11:10:08;10.80;99.90
11009;DHT22;5557;51.670;7.788;2023-04-01T11:26:08;10.90;99.90
11009;DHT22;5557;51.670;7.788;2023-04-01T11:28:23;11.00;99.90
11009;DHT22;5557;51.670;7.788;2023-04-01T11:31:27;11.00;99.90
11009;DHT22;5557;51.670;7.788;2023-04-01T11:34:05;11.00;99.90
11009;DHT22;5557;51.670;7.788;2023-04-01T11:37:04;11.10;99.90
11009;DHT22;5557;51.670;7.788;2023-04-01T11:43:01;11.00;99.90
11009;DHT22;5557;51.670;7.788;2023-04-01T11:46:42;11.10;99.90
11009;DHT22;5557;51.670;7.788;2023-04-01T11:52:06;11.30;99.90
11009;DHT22;5557;51.670;7.788;2023-04-01T11:55:06;11.30;99.90
11009;DHT22;5557;51.670;7.788;2023-04-01T11:58:08;11.30;99.90
11009;DHT22;5557;51.670;7.788;2023-04-01T12:00:52;11.40;99.90
11009;DHT22;5557;51.670;7.788;2023-04-01T12:07:06;11.20;99.90
11009;DHT22;5557;51.670;7.788;2023-04-01T12:10:15;11.10;99.90
11009;DHT22;5557;51.670;7.788;2023-04-01T12:16:17;11.10;99.90
11009;DHT22;5557;51.670;7.788;2023-04-01T12:18:59;11.20;99.90
11009;DHT22;5557;51.670;7.788;2023-04-01T12:21:42;11.20;99.90
11009;DHT22;5557;51.670;7.788;2023-04-01T12:30:46;11.20;99.90
11009;DHT22;5557;51.670;7.788;2023-04-01T12:36:52;11.60;99.90
11009;DHT22;5557;51.670;7.788;2023-04-01T12:42:44;11.60;99.90
11009;DHT22;5557;51.670;7.788;2023-04-01T12:45:34;11.80;99.90
11009;DHT22;5557;51.670;7.788;2023-04-01T12:48:23;11.90;99.90
11009;DHT22;5557;51.670;7.788;2023-04-01T12:54:20;12.10;99.90
11009;DHT22;5557;51.670;7.788;2023-04-01T13:00:23;11.80;99.90
11009;DHT22;5557;51.670;7.788;2023-04-01T13:06:24;11.60;99.90
11009;DHT22;5557;51.670;7.788;2023-04-01T13:12:36;11.70;99.90
11009;DHT22;5557;51.670;7.788;2023-04-01T13:15:37;11.70;99.90
11009;DHT22;5557;51.670;7.788;2023-04-01T13:19:02;11.60;99.90
11009;DHT22;5557;51.670;7.788;2023-04-01T13:21:32;11.60;99.90
11009;DHT22;5557;51.670;7.788;2023-04-01T13:29:59;11.80;99.90
11009;DHT22;5557;51.670;7.788;2023-04-01T13:38:57;11.70;99.90
11009;DHT22;5557;51.670;7.788;2023-04-01T13:41:01;11.50;99.90
11009;DHT22;5557;51.670;7.788;2023-04-01T13:43:48;11.40;99.90
11009;DHT22;5557;51.670;7.788;2023-04-01T13:47:44;11.40;99.90
11009;DHT22;5557;51.670;7.788;2023-04-01T13:50:04;11.50;99.90
11009;DHT22;5557;51.670;7.788;2023-04-01T13:59:25;11.40;99.90
11009;DHT22;5557;51.670;7.788;2023-04-01T14:02:33;11.40;99.90
11009;DHT22;5557;51.670;7.788;2023-04-01T14:06:47;11.20;99.90
11009;DHT22;5557;51.670;7.788;2023-04-01T14:17:54;10.70;99.90
11009;DHT22;5557;51.670;7.788;2023-04-01T14:21:17;10.70;99.90
11009;DHT22;5557;51.670;7.788;2023-04-01T14:36:25;11.00;99.90
11009;DHT22;5557;51.670;7.788;2023-04-01T14:54:31;11.30;99.90
11009;DHT22;5557;51.670;7.788;2023-04-01T15:00:27;11.40;99.90
11009;DHT22;5557;51.670;7.788;2023-04-01T15:02:59;11.40;99.90
11009;DHT22;5557;51.670;7.788;2023-04-01T15:09:03;11.50;99.90
11009;DHT22;5557;51.670;7.788;2023-04-01T15:11:47;11.50;99.90
11009;DHT22;5557;51.670;7.788;2023-04-01T15:14:48;11.40;99.90
11009;DHT22;5557;51.670;7.788;2023-04-01T15:18:09;11.40;99.90
11009;DHT22;5557;51.670;7.788;2023-04-01T15:23:27;11.30;99.90
11009;DHT22;5557;51.670;7.788;2023-04-01T15:29:01;11.40;99.90
11009;DHT22;5557;51.670;7.788;2023-04-01T15:38:48;11.10;99.90
11009;DHT22;5557;51.670;7.788;2023-04-01T15:41:06;11.00;99.90
11009;DHT22;5557;51.670;7.788;2023-04-01T15:43:49;11.00;99.90
11009;DHT22;5557;51.670;7.788;2023-04-01T15:46:44;10.80;99.90
11009;DHT22;5557;51.670;7.788;2023-04-01T15:49:38;10.80;99.90
11009;DHT22;5557;51.670;7.788;2023-04-01T15:52:54;10.70;99.90
11009;DHT22;5557;51.670;7.788;2023-04-01T15:56:26;10.70;99.90
11009;DHT22;5557;51.670;7.788;2023-04-01T16:01:47;10.60;99.90
11009;DHT22;5557;51.670;7.788;2023-04-01T16:04:58;10.60;99.90
11009;DHT22;5557;51.670;7.788;2023-04-01T16:08:02;10.50;99.90
11009;DHT22;5557;51.670;7.788;2023-04-01T16:11:05;10.50;99.90
11009;DHT22;5557;51.670;7.788;2023-04-01T16:20:39;10.50;99.90
11009;DHT22;5557;51.670;7.788;2023-04-01T16:23:12;10.50;99.90
11009;DHT22;5557;51.670;7.788;2023-04-01T16:25:44;10.50;99.90
11009;DHT22;5557;51.670;7.788;2023-04-01T16:28:38;10.50;99.90
11009;DHT22;5557;51.670;7.788;2023-04-01T16:31:34;10.50;99.90
11009;DHT22;5557;51.670;7.788;2023-04-01T16:34:19;10.50;99.90
11009;DHT22;5557;51.670;7.788;2023-04-01T16:37:00;10.50;99.90
11009;DHT22;5557;51.670;7.788;2023-04-01T16:42:34;10.50;99.90
11009;DHT22;5557;51.670;7.788;2023-04-01T16:45:19;10.50;99.90
11009;DHT22;5557;51.670;7.788;2023-04-01T16:50:58;10.50;99.90
11009;DHT22;5557;51.670;7.788;2023-04-01T16:53:41;10.50;99.90
11009;DHT22;5557;51.670;7.788;2023-04-01T16:56:28;10.50;99.90
11009;DHT22;5557;51.670;7.788;2023-04-01T16:59:33;10.50;99.90
11009;DHT22;5557;51.670;7.788;2023-04-01T17:02:28;10.50;99.90
11009;DHT22;5557;51.670;7.788;2023-04-01T17:05:08;10.50;99.90
11009;DHT22;5557;51.670;7.788;2023-04-01T17:08:35;10.50;99.90
11009;DHT22;5557;51.670;7.788;2023-04-01T17:11:19;10.40;99.90
11009;DHT22;5557;51.670;7.788;2023-04-01T17:17:38;10.40;99.90
11009;DHT22;5557;51.670;7.788;2023-04-01T17:30:19;10.30;99.90
11009;DHT22;5557;51.670;7.788;2023-04-01T17:32:36;10.30;99.90
11009;DHT22;5557;51.670;7.788;2023-04-01T17:35:12;10.30;99.90
11009;DHT22;5557;51.670;7.788;2023-04-01T17:43:46;10.20;99.90
11009;DHT22;5557;51.670;7.788;2023-04-01T17:49:35;10.20;99.90
11009;DHT22;5557;51.670;7.788;2023-04-01T17:55:58;10.20;99.90
11009;DHT22;5557;51.670;7.788;2023-04-01T18:04:54;10.20;99.90
11009;DHT22;5557;51.670;7.788;2023-04-01T18:07:38;10.10;99.90
11009;DHT22;5557;51.670;7.788;2023-04-01T18:13:19;10.10;99.90
11009;DHT22;5557;51.670;7.788;2023-04-01T18:16:22;10.10;99.90
11009;DHT22;5557;51.670;7.788;2023-04-01T18:19:28;10.10;99.90
11009;DHT22;5557;51.670;7.788;2023-04-01T18:22:22;10.10;99.90
11009;DHT22;5557;51.670;7.788;2023-04-01T18:25:22;10.10;99.90
11009;DHT22;5557;51.670;7.788;2023-04-01T18:30:59;10.10;99.90
11009;DHT22;5557;51.670;7.788;2023-04-01T18:36:59;10.10;99.90
11009;DHT22;5557;51.670;7.788;2023-04-01T18:39:40;10.10;99.90
11009;DHT22;5557;51.670;7.788;2023-04-01T18:52:19;10.00;99.90
11009;DHT22;5557;51.670;7.788;2023-04-01T18:55:23;10.10;99.90
11009;DHT22;5557;51.670;7.788;2023-04-01T18:57:53;10.00;99.90
11009;DHT22;5557;51.670;7.788;2023-04-01T19:00:25;10.00;99.90
11009;DHT22;5557;51.670;7.788;2023-04-01T19:03:24;10.00;99.90
11009;DHT22;5557;51.670;7.788;2023-04-01T19:05:52;10.00;99.90
11009;DHT22;5557;51.670;7.788;2023-04-01T19:08:32;10.00;99.90
11009;DHT22;5557;51.670;7.788;2023-04-01T19:11:27;10.10;99.90
11009;DHT22;5557;51.670;7.788;2023-04-01T19:25:33;10.00;99.90
11009;DHT22;5557;51.670;7.788;2023-04-01T19:29:06;10.00;99.90
11009;DHT22;5557;51.670;7.788;2023-04-01T19:31:41;10.00;99.90
11009;DHT22;5557;51.670;7.788;2023-04-01T19:38:11;10.00;99.90
11009;DHT22;5557;51.670;7.788;2023-04-01T19:41:04;10.00;99.90
11009;DHT22;5557;51.670;7.788;2023-04-01T19:46:41;9.90;99.90
11009;DHT22;5557;51.670;7.788;2023-04-01T19:52:29;9.60;99.90
11009;DHT22;5557;51.670;7.788;2023-04-01T19:58:17;9.20;99.90
11009;DHT22;5557;51.670;7.788;2023-04-01T20:00:52;9.10;99.90
11009;DHT22;5557;51.670;7.788;2023-04-01T20:07:04;9.00;99.90
11009;DHT22;5557;51.670;7.788;2023-04-01T20:10:09;8.90;99.90
11009;DHT22;5557;51.670;7.788;2023-04-01T20:15:45;8.80;99.90
11009;DHT22;5557;51.670;7.788;2023-04-01T20:24:01;8.60;99.90
11009;DHT22;5557;51.670;7.788;2023-04-01T20:26:33;8.50;99.90
11009;DHT22;5557;51.670;7.788;2023-04-01T20:48:24;8.40;99.90
11009;DHT22;5557;51.670;7.788;2023-04-01T20:51:30;8.30;99.90
11009;DHT22;5557;51.670;7.788;2023-04-01T20:54:26;8.20;99.90
11009;DHT22;5557;51.670;7.788;2023-04-01T20:57:14;8.10;99.90
11009;DHT22;5557;51.670;7.788;2023-04-01T21:06:51;8.00;99.90
11009;DHT22;5557;51.670;7.788;2023-04-01T21:12:32;7.90;99.90
11009;DHT22;5557;51.670;7.788;2023-04-01T21:18:23;7.90;99.90
11009;DHT22;5557;51.670;7.788;2023-04-01T21:21:16;7.80;99.90
11009;DHT22;5557;51.670;7.788;2023-04-01T21:25:00;7.80;99.90
11009;DHT22;5557;51.670;7.788;2023-04-01T21:34:03;7.80;99.90
11009;DHT22;5557;51.670;7.788;2023-04-01T21:37:02;7.70;99.90
11009;DHT22;5557;51.670;7.788;2023-04-01T21:43:46;7.60;99.90
11009;DHT22;5557;51.670;7.788;2023-04-01T22:04:07;7.30;99.90
11009;DHT22;5557;51.670;7.788;2023-04-01T22:07:21;7.30;99.90
11009;DHT22;5557;51.670;7.788;2023-04-01T22:11:34;7.20;99.90
11009;DHT22;5557;51.670;7.788;2023-04-01T22:13:05;7.20;99.90
11009;DHT22;5557;51.670;7.788;2023-04-01T22:19:00;7.10;99.90
11009;DHT22;5557;51.670;7.788;2023-04-01T22:22:04;7.10;99.90
11009;DHT22;5557;51.670;7.788;2023-04-01T22:25:21;7.10;99.90
11009;DHT22;5557;51.670;7.788;2023-04-01T22:28:07;7.10;99.90
11009;DHT22;5557;51.670;7.788;2023-04-01T22:30:42;7.00;99.90
11009;DHT22;5557;51.670;7.788;2023-04-01T22:41:09;7.00;99.90
11009;DHT22;5557;51.670;7.788;2023-04-01T22:46:49;6.90;99.90
11009;DHT22;5557;51.670;7.788;2023-04-01T22:49:29;7.00;99.90
11009;DHT22;5557;51.670;7.788;2023-04-01T22:52:31;7.00;99.90
11009;DHT22;5557;51.670;7.788;2023-04-01T22:55:01;7.00;99.90
11009;DHT22;5557;51.670;7.788;2023-04-01T22:57:59;7.00;99.90
11009;DHT22;5557;51.670;7.788;2023-04-01T23:00:47;7.00;99.90
11009;DHT22;5557;51.670;7.788;2023-04-01T23:05:51;7.00;99.90
11009;DHT22;5557;51.670;7.788;2023-04-01T23:09:02;7.00;99.90
11009;DHT22;5557;51.670;7.788;2023-04-01T23:12:07;6.90;99.90
11009;DHT22;5557;51.670;7.788;2023-04-01T23:14:51;6.90;99.90
11009;DHT22;5557;51.670;7.788;2023-04-01T23:23:57;6.90;99.90
11009;DHT22;5557;51.670;7.788;2023-04-01T23:26:39;6.80;99.90
11009;DHT22;5557;51.670;7.788;2023-04-01T23:29:16;6.80;99.90
11009;DHT22;5557;51.670;7.788;2023-04-01T23:31:47;6.80;99.90
11009;DHT22;5557;51.670;7.788;2023-04-01T23:34:24;6.70;99.90
11009;DHT22;5557;51.670;7.788;2023-04-01T23:36:55;6.60;99.90
11009;DHT22;5557;51.670;7.788;2023-04-01T23:39:35;6.50;99.90
11009;DHT22;5557;51.670;7.788;2023-04-01T23:42:13;6.50;99.90
11009;DHT22;5557;51.670;7.788;2023-04-01T23:44:42;6.50;99.90
11009;DHT22;5557;51.670;7.788;2023-04-01T23:47:19;6.50;99.90
11009;DHT22;5557;51.670;7.788;2023-04-01T23:49:56;6.40;99.90
11009;DHT22;5557;51.670;7.788;2023-04-01T23:52:26;6.30;99.90
11009;DHT22;5557;51.670;7.788;2023-04-01T23:55:03;6.30;99.90
11009;DHT22;5557;51.670;7.788;2023-04-01T23:57:32;6.30;99.90
